Latest Weather Observations for Clare

IDS60801

Issued at 11:51 pm CDT Thursday 20 January 2022 (issued every 10 minutes, with the page automatically refreshed every 10 minutes)

About weather observations | Map of weather stations | Latest weather observations for SA | Other Formats
Station Details ID: 021131 Name: CLARE HIGH SCHOOL Lat: -33.82 Lon: 138.59 Height: 395.0 m
Data from the previous 72 hours. | See also: Recent months at Clare
Date/Time
CDT
Temp
°C
App
Temp
°C
Dew
Point
°C
Rel
Hum
%
Delta-T
°C
Wind Press
QNH
hPa
Press
MSL
hPa
Rain since
9am
mm
Dir  Spd
km/h
Gust
km/h
Spd
kts
Gust
kts
20/11:30pm 26.3 23.7 7.8 31 10.1 NE 11 19 6 10 1018.4 1016.5 0.0
20/11:00pm 26.9 23.1 7.4 29 10.6 ENE 17 30 9 16 1018.4 1016.5 0.0
20/10:30pm 26.9 23.3 6.9 28 10.7 E 15 24 8 13 1018.2 1016.3 0.0
20/10:00pm 27.1 23.1 6.5 27 11.0 E 17 30 9 16 1018.0 1016.1 0.0
20/09:30pm 27.3 23.9 6.1 26 11.3 ENE 13 22 7 12 1017.9 1016.0 0.0
20/09:00pm 27.6 24.4 6.9 27 11.2 ENE 13 20 7 11 1017.4 1015.6 0.0
20/08:30pm 28.3 24.5 7.5 27 11.4 ENE 17 30 9 16 1017.3 1015.5 0.0
20/08:00pm 28.9 25.2 8.0 27 11.6 ENE 17 28 9 15 1017.0 1015.2 0.0
20/07:30pm 29.7 25.8 8.7 27 11.8 ENE 19 35 10 19 1016.8 1015.0 0.0
20/07:00pm 30.0 25.5 8.4 26 12.1 ENE 22 44 12 24 1016.7 1014.9 0.0
20/06:30pm 30.4 25.6 8.7 26 12.2 E 24 37 13 20 1016.4 1014.6 0.0
20/06:00pm 30.6 25.8 8.9 26 12.3 ENE 24 46 13 25 1016.3 1014.5 0.0
20/05:30pm 30.8 26.2 9.6 27 12.1 ENE 24 39 13 21 1016.2 1014.3 0.0
20/05:00pm 30.5 25.8 9.4 27 12.0 ENE 24 39 13 21 1016.6 1014.8 0.0
20/04:30pm 30.5 26.3 9.9 28 11.8 E 22 39 12 21 1017.0 1015.2 0.0
20/04:00pm 30.8 27.2 10.7 29 11.7 ENE 20 39 11 21 1017.4 1015.6 0.0
20/03:30pm 30.6 26.8 11.1 30 11.4 NE 22 44 12 24 1017.8 1015.9 0.0
20/03:00pm 29.8 25.9 10.9 31 11.0 ENE 22 39 12 21 1018.0 1016.1 0.0
20/02:30pm 29.4 25.8 11.9 34 10.3 ENE 22 50 12 27 1018.4 1016.5 0.0
20/02:00pm 29.4 25.4 11.9 34 10.3 NNE 24 44 13 24 1018.5 1016.7 0.0
20/01:30pm 28.5 25.5 12.4 37 9.5 NNE 20 32 11 17 1018.8 1017.0 0.0
20/01:00pm 28.2 24.3 12.1 37 9.5 NE 24 41 13 22 1019.1 1017.3 0.0
20/12:41pm 27.2 22.6 12.4 40 8.7 NE 28 46 15 25 1019.3 1017.5 0.0
20/12:30pm 27.6 23.2 12.8 40 8.8 NNE 28 44 15 24 1019.2 1017.4 0.0
20/12:00pm 26.4 22.0 12.8 43 8.0 NNE 28 54 15 29 1019.3 1017.5 0.0
20/11:52am 26.4 21.9 12.5 42 8.2 NE 28 54 15 29 1019.6 1017.8 0.0
20/11:30am 26.4 22.8 13.2 44 7.8 ENE 24 41 13 22 1019.7 1017.9 0.0
20/11:00am 25.3 22.3 12.5 45 7.5 E 20 39 11 21 1019.9 1018.1 0.0
20/10:30am 24.7 20.6 12.6 47 7.1 E 26 44 14 24 1019.7 1017.9 0.0
20/10:00am 24.5 21.3 13.1 49 6.7 E 22 46 12 25 1019.7 1017.9 0.0
20/09:31am 23.7 19.5 13.6 53 6.0 E 28 46 15 25 1019.7 1017.9 0.0
20/09:30am 23.6 19.9 13.8 54 5.8 E 26 46 14 25 1019.8 1018.0 0.0
20/09:00am 23.4 19.3 13.8 54 5.7 E 28 52 15 28 1019.5 1017.7 0.0
20/08:30am 22.9 18.9 14.2 58 5.2 ESE 28 48 15 26 1019.0 1017.2 0.0
20/08:00am 22.4 18.5 14.5 61 4.7 ESE 28 50 15 27 1019.0 1017.2 0.0
20/07:58am 22.4 18.5 14.5 61 4.7 ESE 28 50 15 27 1019.0 1017.2 0.0
20/07:30am 22.1 19.0 14.5 62 4.5 ESE 24 39 13 21 1018.9 1017.1 0.0
20/07:00am 21.7 20.0 14.8 65 4.1 E 17 30 9 16 1019.0 1017.2 0.0
20/06:30am 21.7 19.8 15.1 66 4.0 E 19 30 10 16 1018.7 1016.9 0.0
20/06:00am 21.9 19.5 14.5 63 4.4 E 20 32 11 17 1018.6 1016.8 0.0
20/05:30am 22.1 19.9 15.0 64 4.3 E 20 32 11 17 1018.4 1016.5 0.0
20/05:00am 22.1 19.7 14.5 62 4.5 ESE 20 32 11 17 1018.1 1016.2 0.0
20/04:30am 22.1 19.8 14.0 60 4.8 E 19 30 10 16 1018.1 1016.2 0.0
20/04:00am 21.4 20.6 12.8 58 5.0 ESE 9 19 5 10 1018.0 1016.1 0.0
20/03:30am 21.2 19.5 11.2 53 5.6 ESE 11 20 6 11 1017.6 1015.8 0.0
20/03:00am 21.4 19.4 10.3 49 6.1 ESE 11 17 6 9 1017.5 1015.7 0.0
20/02:30am 21.4 18.8 9.3 46 6.6 ESE 13 19 7 10 1017.4 1015.6 0.0
20/02:00am 21.7 19.2 8.2 42 7.2 ESE 11 22 6 12 1017.4 1015.6 0.0
20/01:30am 22.1 19.4 7.5 39 7.7 ESE 11 19 6 10 1017.6 1015.8 0.0
20/01:00am 22.5 19.2 6.3 35 8.4 ESE 13 19 7 10 1017.9 1016.0 0.0
20/12:30am 22.7 20.6 6.0 34 8.6 ESE 6 11 3 6 1017.9 1016.0 0.0
20/12:00am 22.6 20.9 6.0 34 8.6 ENE 4 7 2 4 1017.8 1015.9 0.0
 
Date/Time
CDT
Temp
°C
App
Temp
°C
Dew
Point
°C
Rel
Hum
%
Delta-T
°C
Wind Press
QNH
hPa
Press
MSL
hPa
Rain since
9am
mm
Dir  Spd
km/h
Gust
km/h
Spd
kts
Gust
kts
19/11:30pm 22.7 21.4 6.0 34 8.6 E 2 7 1 4 1017.2 1015.4 0.0
19/11:00pm 23.2 21.5 6.1 33 8.9 E 4 9 2 5 1017.2 1015.4 0.0
19/10:30pm 23.7 21.6 6.0 32 9.2 SE 6 9 3 5 1017.1 1015.3 0.0
19/10:00pm 23.9 21.9 6.2 32 9.2 ESE 6 13 3 7 1016.9 1015.1 0.0
19/09:30pm 24.5 22.2 5.8 30 9.7 ESE 7 13 4 7 1016.8 1015.0 0.0
19/09:00pm 25.1 22.2 6.3 30 9.9 E 11 17 6 9 1016.6 1014.8 0.0
19/08:30pm 25.8 23.2 5.9 28 10.4 E 9 15 5 8 1016.6 1014.8 0.0
19/08:00pm 26.5 23.0 5.5 26 11.0 E 13 22 7 12 1016.4 1014.6 0.0
19/07:30pm 27.0 23.1 5.3 25 11.3 E 15 24 8 13 1016.1 1014.2 0.0
19/07:00pm 27.5 23.2 5.1 24 11.7 E 17 30 9 16 1015.8 1013.9 0.0
19/06:30pm 27.7 23.0 5.3 24 11.8 E 19 32 10 17 1015.5 1013.6 0.0
19/06:00pm 27.7 23.3 4.7 23 12.0 E 17 30 9 16 1015.5 1013.6 0.0
19/05:30pm 28.0 23.6 5.0 23 12.0 E 17 32 9 17 1015.5 1013.6 0.0
19/05:00pm 27.8 23.5 5.4 24 11.8 E 17 30 9 16 1015.6 1013.7 0.0
19/04:30pm 27.9 23.7 5.5 24 11.8 ESE 17 26 9 14 1015.9 1014.0 0.0
19/04:00pm 27.1 23.7 6.0 26 11.2 ESE 13 22 7 12 1016.1 1014.2 0.0
19/03:30pm 27.5 23.8 6.3 26 11.3 E 15 32 8 17 1016.4 1014.6 0.0
19/03:00pm 26.4 22.2 5.9 27 10.8 E 17 30 9 16 1016.7 1014.9 0.0
19/02:30pm 26.1 22.5 6.7 29 10.3 E 15 24 8 13 1017.1 1015.3 0.0
19/02:00pm 25.3 21.3 6.5 30 9.9 ESE 17 26 9 14 1017.2 1015.4 0.0
19/01:30pm 25.0 21.3 6.2 30 9.9 E 15 28 8 15 1017.5 1015.7 0.0
19/01:00pm 24.3 20.8 7.0 33 9.2 E 15 26 8 14 1017.9 1016.0 0.0
19/12:30pm 23.4 19.4 6.7 34 8.8 E 17 33 9 18 1018.0 1016.1 0.0
19/12:00pm 22.4 18.8 6.6 36 8.2 E 15 32 8 17 1018.2 1016.3 0.0
19/11:30am 21.9 18.3 6.6 37 7.9 E 15 30 8 16 1018.3 1016.4 0.0
19/11:00am 21.4 18.3 7.3 40 7.4 ESE 13 24 7 13 1018.1 1016.2 0.0
19/10:30am 20.5 16.7 7.5 43 6.8 E 17 32 9 17 1018.3 1016.4 0.0
19/10:00am 19.2 15.0 7.3 46 6.2 E 19 32 10 17 1018.3 1016.4 0.0
19/09:30am 18.3 13.9 7.4 49 5.6 E 20 32 11 17 1018.3 1016.4 0.0
19/09:00am 17.4 14.0 7.5 52 5.1 ESE 15 26 8 14 1018.2 1016.3 0.0
19/08:30am 15.9 12.1 7.4 57 4.3 ESE 17 33 9 18 1018.1 1016.2 0.0
19/08:00am 14.9 11.5 7.5 61 3.7 E 15 28 8 15 1017.8 1015.9 0.0
19/07:30am 14.1 10.7 7.6 65 3.3 ESE 15 26 8 14 1017.4 1015.6 0.0
19/07:00am 13.2 9.4 7.4 68 2.9 ESE 17 30 9 16 1017.1 1015.3 0.0
19/06:30am 12.8 9.3 7.3 69 2.7 ESE 15 26 8 14 1016.7 1014.9 0.0
19/06:00am 13.0 9.2 7.5 69 2.7 ESE 17 32 9 17 1016.4 1014.6 0.0
19/05:30am 13.1 9.6 7.3 68 2.9 ESE 15 26 8 14 1016.1 1014.2 0.0
19/05:00am 13.5 9.7 7.5 67 3.0 ESE 17 28 9 15 1015.8 1013.9 0.0
19/04:30am 13.7 10.3 7.5 66 3.1 ESE 15 30 8 16 1015.8 1013.9 0.0
19/04:00am 14.0 11.0 7.8 66 3.1 ESE 13 26 7 14 1015.6 1013.7 0.0
19/03:30am 14.1 10.8 8.1 67 3.1 ESE 15 26 8 14 1015.8 1013.9 0.0
19/03:00am 14.2 11.4 8.6 69 2.9 ESE 13 24 7 13 1015.9 1014.0 0.0
19/02:30am 14.4 11.3 8.8 69 2.9 SE 15 32 8 17 1015.9 1014.0 0.0
19/02:00am 14.7 11.9 8.6 67 3.1 SE 13 28 7 15 1015.9 1014.0 0.0
19/01:30am 14.8 11.7 8.7 67 3.2 SE 15 30 8 16 1016.3 1014.5 0.0
19/01:00am 14.7 12.0 8.9 68 3.0 SE 13 24 7 13 1016.3 1014.5 0.0
19/12:30am 14.8 12.0 8.7 67 3.2 SE 13 22 7 12 1016.2 1014.3 0.0
19/12:00am 15.0 12.6 8.7 66 3.3 SE 11 26 6 14 1016.2 1014.3 0.0
 
Date/Time
CDT
Temp
°C
App
Temp
°C
Dew
Point
°C
Rel
Hum
%
Delta-T
°C
Wind Press
QNH
hPa
Press
MSL
hPa
Rain since
9am
mm
Dir  Spd
km/h
Gust
km/h
Spd
kts
Gust
kts
18/11:30pm 15.3 12.9 8.5 64 3.5 SE 11 24 6 13 1016.1 1014.2 0.0
18/11:00pm 15.9 13.5 8.6 62 3.8 SE 11 20 6 11 1016.0 1014.1 0.0
18/10:30pm 16.8 14.4 8.5 58 4.3 SE 11 24 6 13 1015.9 1014.0 0.0
18/10:00pm 17.5 14.7 8.4 55 4.8 SE 13 20 7 11 1015.9 1014.0 0.0
18/09:30pm 18.5 16.0 8.2 51 5.4 SE 11 24 6 13 1015.4 1013.5 0.0
18/09:00pm 19.8 16.9 6.5 42 6.8 SE 11 20 6 11 1015.3 1013.4 0.0
18/08:30pm 20.4 17.8 6.0 39 7.3 SE 9 19 5 10 1015.5 1013.6 0.0
18/08:00pm 20.8 17.3 5.6 37 7.7 SE 13 22 7 12 1015.0 1013.2 0.0
18/07:30pm 21.4 18.3 5.7 36 8.0 SE 11 20 6 11 1014.5 1012.7 0.0
18/07:00pm 22.7 19.6 5.6 33 8.8 ESE 11 19 6 10 1014.1 1012.3 0.0
18/06:30pm 22.7 19.2 5.6 33 8.8 ESE 13 26 7 14 1013.4 1011.5 0.0
18/06:00pm 22.9 19.2 6.2 34 8.7 SE 15 24 8 13 1013.8 1011.9 0.0
18/05:30pm 23.5 19.8 6.3 33 9.0 SSE 15 24 8 13 1014.0 1012.2 0.0
18/05:00pm 24.2 21.3 8.2 36 8.7 SE 13 24 7 13 1013.8 1011.9 0.0
18/04:30pm 24.2 20.7 7.4 34 9.0 E 15 28 8 15 1013.9 1012.0 0.0
18/04:00pm 24.3 20.8 7.0 33 9.2 E 15 28 8 15 1014.5 1012.7 0.0
18/03:30pm 23.6 19.6 6.8 34 8.8 E 17 28 9 15 1014.6 1012.8 0.0
18/03:00pm 23.7 20.6 7.3 35 8.7 ESE 13 24 7 13 1014.5 1012.7 0.0
18/02:30pm 23.8 21.1 7.4 35 8.7 E 11 20 6 11 1014.7 1012.9 0.0
18/02:00pm 23.3 20.6 7.4 36 8.5 ESE 11 24 6 13 1014.8 1013.0 0.0
18/01:30pm 23.5 20.9 7.6 36 8.5 ESE 11 19 6 10 1015.0 1013.2 0.0
18/01:00pm 23.0 20.0 7.5 37 8.2 E 13 24 7 13 1015.4 1013.5 0.0
18/12:30pm 22.7 19.9 6.9 36 8.3 ESE 11 20 6 11 1015.6 1013.7 0.0
18/12:00pm 21.6 18.1 7.1 39 7.6 ENE 15 24 8 13 1015.7 1013.8 0.0
18/11:30am 19.8 15.8 6.5 42 6.8 ESE 17 24 9 13 1016.1 1014.2 0.0
18/11:00am 18.4 14.8 6.6 46 6.0 ESE 15 22 8 12 1016.2 1014.3 0.0
18/10:30am 18.0 13.5 6.2 46 5.9 E 19 32 10 17 1016.6 1014.8 0.0
18/10:00am 16.9 12.8 6.1 49 5.4 E 17 30 9 16 1016.6 1014.8 0.0
18/09:30am 16.0 11.6 6.7 54 4.7 E 19 32 10 17 1016.5 1014.7 0.0
18/09:00am 16.1 12.6 7.3 56 4.5 ESE 15 26 8 14 1016.5 1014.7 0.0
18/08:30am 14.7 10.6 7.7 63 3.5 E 19 32 10 17 1016.3 1014.5 0.0
18/08:00am 14.2 10.5 7.9 66 3.2 ESE 17 26 9 14 1015.9 1014.0 0.0
18/07:30am 12.9 9.2 8.0 72 2.5 E 17 24 9 13 1015.9 1014.0 0.0
18/07:00am 12.3 9.4 8.2 76 2.1 E 13 22 7 12 1015.7 1013.8 0.0
18/06:30am 12.3 10.2 8.4 77 2.0 E 9 19 5 10 1015.6 1013.7 0.0
18/06:00am 12.8 11.2 8.9 77 2.0 E 7 15 4 8 1015.4 1013.5 0.0
18/05:30am 13.0 11.5 9.1 77 2.0 ESE 7 11 4 6 1015.0 1013.2 0.0
18/05:00am 13.4 11.8 8.9 74 2.3 ESE 7 13 4 7 1014.8 1013.0 0.0
18/04:30am 13.7 12.1 8.7 72 2.6 E 7 15 4 8 1014.2 1012.4 0.0
18/04:00am 14.1 12.5 8.9 71 2.7 SSE 7 13 4 7 1014.1 1012.3 0.0
18/03:30am 14.3 12.7 8.9 70 2.8 ESE 7 11 4 6 1013.8 1011.9 0.0
18/03:00am 14.5 12.6 9.1 70 2.8 ESE 9 17 5 9 1014.2 1012.4 0.0
18/02:30am 14.9 12.7 9.5 70 2.8 ESE 11 17 6 9 1014.3 1012.5 0.0
18/02:00am 15.3 13.2 9.7 69 3.0 E 11 17 6 9 1014.3 1012.5 0.0
18/01:30am 15.7 13.7 10.0 69 3.0 ESE 11 17 6 9 1014.5 1012.7 0.0
18/01:00am 16.5 15.0 10.4 67 3.3 SE 9 13 5 7 1014.4 1012.6 0.0
18/12:30am 16.8 15.5 11.1 69 3.1 ESE 9 17 5 9 1014.2 1012.4 0.0
18/12:00am 17.4 15.2 10.8 65 3.6 SE 13 26 7 14 1014.2 1012.4 0.0

Other formats

Comma delimited format used in spreadsheet applications
http://www.bom.gov.au/fwo/IDS60801/IDS60801.95667.axf

JavaScript Object Notation format (JSON) in row-major order
http://www.bom.gov.au/fwo/IDS60801/IDS60801.95667.json

Data quality

Most of these data are generated automatically and are frequently updated. Quality checks on data are not normally performed. It is possible for incorrect values to appear. Refer to information at About Latest Weather Observations and please check the disclaimer before using these data.